首页
METAR-TAF:

METAR-TAF

机场 :

新奥尔良路易斯阿姆斯特朗国际机场

新奥尔良, 路易斯安那州, 美国

纬度: 29-59-34N, 经度: 090-15-03W, 海拔: 1米

当前天气观测

该预报发布于21分钟前的16:53 UTC
风速5节,风向
温度 32°C
湿度 59%
气压 1020 hPa
能見度: 16.1公里
散云层高于3800英尺
散云层高于25000英尺

METAR: KMSY 081653Z 01005KT 10SM SCT038 SCT250 32/23 A3013 RMK AO2 SLP206 CB DSNT SE AND SW TCU DSNT S T03170233

时间: 12:14 (17:14 UTC)

预报

该预报发布于48分钟前的16:26 UTC
预报有效从08日的 16点(UTC)到 09日的 18点(UTC)
风速节,风向
能見度: 10公里
散云层高于3000英尺
散云层高于4000英尺
散云层高于25000英尺
附近有阵雨
从 08日的 2000点(UTC)
风速4节,风向多变
能見度: 10公里
少量云层高于4000英尺, 积雨云.
少量云层高于6000英尺
少量云层高于11000英尺
附近有雷暴
从 08日的 2300点(UTC)
风速6节,风向
能見度: 10公里
少量云层高于4000英尺
散云层高于11000英尺
从 09日的 0300点(UTC)
风速4节,风向多变
能見度: 10公里
少量云层高于3000英尺
少量云层高于25000英尺

TAF: KMSY 081626Z 0816/0918 00000KT P6SM VCSH SCT030 SCT040 SCT250 FM082000 VRB04KT P6SM VCTS FEW040CB FEW060 FEW110 FM082300 18006KT P6SM FEW040 SCT110 FM090300 VRB04KT P6SM FEW030 FEW250

超过4000个机场的气象观测和天气预报(METAR&TAF报告)。

可查询的气象台以黄色和红色小点在地图上表示。

将鼠标移到小点上方,可查看气象台名称。

然后点击查看天气观测和预报。

如需切换地图:点击带黑十字的绿色按钮放大地图;点击带横线的绿色按钮缩小地图;或者点击绿色箭头查看邻近地区的地图。


METAR-TAF: